createdAt,value
2019-03-01T00:01:30.839Z,4.53
2019-03-01T00:05:13.603Z,4.80
2019-03-01T00:08:32.338Z,4.20
2019-03-01T00:11:57.765Z,4.77
2019-03-01T00:15:24.866Z,4.30
2019-03-01T00:18:58.670Z,4.60
2019-03-01T00:22:29.081Z,4.23
2019-03-01T00:26:14.723Z,4.50
2019-03-01T00:30:13.438Z,4.20
2019-03-01T00:34:15.060Z,4.17
2019-03-01T00:37:53.366Z,4.53
2019-03-01T00:41:42.884Z,4.73
2019-03-01T00:44:49.101Z,4.53
2019-03-01T00:47:55.049Z,3.83
2019-03-01T00:51:00.937Z,4.17
2019-03-01T00:54:06.905Z,4.27
2019-03-01T00:57:13.003Z,4.57
2019-03-01T01:00:33.488Z,4.20
2019-03-01T01:03:39.462Z,4.13
2019-03-01T01:06:45.383Z,4.70
2019-03-01T01:09:51.299Z,3.77
2019-03-01T01:12:57.240Z,4.03
2019-03-01T01:16:03.168Z,3.77
2019-03-01T01:19:09.053Z,3.97
2019-03-01T01:22:15.048Z,3.73
2019-03-01T01:25:20.961Z,3.77
2019-03-01T01:28:26.974Z,4.10
2019-03-01T01:31:32.854Z,3.60
2019-03-01T01:34:38.840Z,3.17
2019-03-01T01:37:44.731Z,3.97
2019-03-01T01:40:50.706Z,3.50
2019-03-01T01:43:56.595Z,3.87
2019-03-01T01:47:02.534Z,4.00
2019-03-01T01:50:08.688Z,3.93
2019-03-01T01:53:14.593Z,3.40
2019-03-01T01:56:20.993Z,3.47
2019-03-01T01:59:26.892Z,3.70
2019-03-01T02:02:32.766Z,3.80
2019-03-01T02:05:38.749Z,3.83
2019-03-01T02:08:45.650Z,3.33
2019-03-01T02:11:51.660Z,3.30
2019-03-01T02:14:57.578Z,3.37
2019-03-01T02:18:03.565Z,3.07
2019-03-01T02:21:09.449Z,3.40
2019-03-01T02:24:15.431Z,3.00
2019-03-01T02:27:26.826Z,3.23
2019-03-01T02:30:33.007Z,2.83
2019-03-01T02:33:38.904Z,3.47
2019-03-01T02:36:44.771Z,3.30
2019-03-01T02:39:50.647Z,3.30
2019-03-01T02:42:56.568Z,3.43
2019-03-01T02:46:02.492Z,3.43
2019-03-01T02:49:08.385Z,3.90
2019-03-01T02:52:14.394Z,3.83
2019-03-01T02:55:21.478Z,3.73
2019-03-01T02:58:27.370Z,3.90
2019-03-01T03:01:33.250Z,3.77
2019-03-01T03:04:39.155Z,3.77
2019-03-01T03:07:50.072Z,3.90
2019-03-01T03:10:55.973Z,3.63
2019-03-01T03:14:01.877Z,3.90
2019-03-01T03:17:07.925Z,5.27
2019-03-01T03:20:14.068Z,4.10
2019-03-01T03:23:19.982Z,4.03
2019-03-01T03:26:25.932Z,3.43
2019-03-01T03:29:31.832Z,3.97
2019-03-01T03:32:37.809Z,4.00
2019-03-01T03:35:43.731Z,4.17
2019-03-01T03:38:49.648Z,4.37
2019-03-01T03:41:55.654Z,3.97
2019-03-01T03:45:01.570Z,4.17
2019-03-01T03:48:07.516Z,4.20
2019-03-01T03:51:13.648Z,4.73
2019-03-01T03:54:19.575Z,4.00
2019-03-01T03:57:25.455Z,4.10
2019-03-01T04:00:31.478Z,4.67
2019-03-01T04:03:37.672Z,5.37
2019-03-01T04:06:43.772Z,4.80
2019-03-01T04:09:49.679Z,4.33
2019-03-01T04:12:55.560Z,4.93
2019-03-01T04:16:01.471Z,4.37
2019-03-01T04:19:07.399Z,5.30
2019-03-01T04:22:13.334Z,5.70
2019-03-01T04:25:19.186Z,5.87
2019-03-01T04:28:25.089Z,5.00
2019-03-01T04:31:30.972Z,5.30
2019-03-01T04:34:36.884Z,5.03
2019-03-01T04:37:42.873Z,5.23
2019-03-01T04:40:48.805Z,5.17
2019-03-01T04:43:54.675Z,5.20
2019-03-01T04:47:00.547Z,5.70
2019-03-01T04:50:07.180Z,5.30
2019-03-01T04:53:13.067Z,5.93
2019-03-01T04:56:18.989Z,6.40
2019-03-01T04:59:25.980Z,5.93
2019-03-01T05:02:34.856Z,6.63
2019-03-01T05:05:40.733Z,6.87
2019-03-01T05:08:46.603Z,8.20
2019-03-01T05:11:52.510Z,7.20
2019-03-01T05:14:58.428Z,5.97
2019-03-01T05:18:04.326Z,5.87
2019-03-01T05:21:10.239Z,5.90
2019-03-01T05:24:16.180Z,5.63
2019-03-01T05:27:22.081Z,5.60
2019-03-01T05:30:27.961Z,6.27
2019-03-01T05:33:33.844Z,6.10
2019-03-01T05:36:39.744Z,7.93
2019-03-01T05:39:45.655Z,7.40
2019-03-01T05:42:51.571Z,7.23
2019-03-01T05:45:57.437Z,8.53
2019-03-01T05:49:03.376Z,7.33
2019-03-01T05:52:09.273Z,7.13
2019-03-01T05:55:15.464Z,6.40
2019-03-01T05:58:47.622Z,5.90
2019-03-01T06:02:31.369Z,6.17
2019-03-01T06:05:39.597Z,6.87
2019-03-01T06:09:08.833Z,6.07
2019-03-01T06:12:48.150Z,5.77
2019-03-01T06:16:33.438Z,6.10
2019-03-01T06:19:57.383Z,6.93
2019-03-01T06:23:50.021Z,6.80
2019-03-01T06:27:32.872Z,6.33
2019-03-01T06:31:20.423Z,6.93
2019-03-01T06:35:09.231Z,6.47
2019-03-01T06:39:10.411Z,7.37
2019-03-01T06:42:53.038Z,7.90
2019-03-01T06:46:22.412Z,7.03
2019-03-01T06:49:47.793Z,7.07
2019-03-01T06:52:53.678Z,7.50
2019-03-01T06:56:02.377Z,9.03
2019-03-01T06:59:08.948Z,9.73
2019-03-01T07:02:18.847Z,8.20
2019-03-01T07:05:24.744Z,8.73
2019-03-01T07:08:30.712Z,7.50
2019-03-01T07:11:36.596Z,8.43
2019-03-01T07:14:42.477Z,8.77
2019-03-01T07:17:48.371Z,8.33
2019-03-01T07:20:54.275Z,9.03
2019-03-01T07:24:00.217Z,8.27
2019-03-01T07:27:07.246Z,8.77
2019-03-01T07:30:13.368Z,9.63
2019-03-01T07:33:19.270Z,8.90
2019-03-01T07:36:25.175Z,9.27
2019-03-01T07:39:31.158Z,10.20
2019-03-01T07:42:37.061Z,8.80
2019-03-01T07:45:42.971Z,9.30
2019-03-01T07:48:48.975Z,9.37
2019-03-01T07:51:54.879Z,9.03
2019-03-01T07:55:00.820Z,9.47
2019-03-01T07:58:06.856Z,9.77
2019-03-01T08:01:12.925Z,9.30
2019-03-01T08:04:18.814Z,9.30
2019-03-01T08:07:24.718Z,9.77
2019-03-01T08:10:30.613Z,9.50
2019-03-01T08:13:36.483Z,9.30
2019-03-01T08:16:42.560Z,8.97
2019-03-01T08:19:48.454Z,9.97
2019-03-01T08:22:56.755Z,9.67
2019-03-01T08:26:03.482Z,9.50
2019-03-01T08:29:09.687Z,9.93
2019-03-01T08:32:15.574Z,9.40
2019-03-01T08:35:21.582Z,9.67
2019-03-01T08:38:28.948Z,10.83
2019-03-01T08:41:35.201Z,10.83
2019-03-01T08:44:41.105Z,10.27
2019-03-01T08:47:48.819Z,10.23
2019-03-01T08:50:55.021Z,10.47
2019-03-01T08:54:01.029Z,10.23
2019-03-01T08:57:06.926Z,11.40
2019-03-01T09:00:26.893Z,9.73
2019-03-01T09:03:38.941Z,9.50
2019-03-01T09:06:44.833Z,10.40
2019-03-01T09:09:53.748Z,10.63
2019-03-01T09:12:58.587Z,10.10
2019-03-01T09:16:05.028Z,9.07
2019-03-01T09:19:11.023Z,11.03
2019-03-01T09:22:17.030Z,11.70
2019-03-01T09:25:23.080Z,11.67
2019-03-01T09:28:29.062Z,11.50
2019-03-01T09:31:34.952Z,10.33
2019-03-01T09:34:40.927Z,11.40
2019-03-01T09:37:46.917Z,11.37
2019-03-01T09:40:52.872Z,10.70
2019-03-01T09:43:59.679Z,11.43
2019-03-01T09:47:06.680Z,10.97
2019-03-01T09:50:12.782Z,10.33
2019-03-01T09:53:18.778Z,10.03
2019-03-01T09:56:25.972Z,11.93
2019-03-01T09:59:31.882Z,11.20
2019-03-01T10:02:37.785Z,12.00
2019-03-01T10:05:43.750Z,11.30
2019-03-01T10:08:49.861Z,11.80
2019-03-01T10:11:55.878Z,11.50
2019-03-01T10:15:01.800Z,10.97
2019-03-01T10:18:08.215Z,11.30
2019-03-01T10:21:14.151Z,10.00
2019-03-01T10:24:19.948Z,11.43
2019-03-01T10:27:25.702Z,10.53
2019-03-01T10:30:31.487Z,10.13
2019-03-01T10:33:37.412Z,11.60
2019-03-01T10:36:43.175Z,10.80
2019-03-01T10:39:55.327Z,11.53
2019-03-01T10:42:56.350Z,11.07
2019-03-01T10:46:02.062Z,10.53
2019-03-01T10:49:07.779Z,10.07
2019-03-01T10:52:13.566Z,10.63
2019-03-01T10:55:19.419Z,10.20
2019-03-01T10:58:25.277Z,10.30
2019-03-01T11:01:30.994Z,10.13
2019-03-01T11:04:36.714Z,9.67
2019-03-01T11:07:45.065Z,9.33
2019-03-01T11:10:50.804Z,11.20
2019-03-01T11:13:56.610Z,9.83
2019-03-01T11:17:02.291Z,10.03
2019-03-01T11:20:08.845Z,10.30
2019-03-01T11:23:14.723Z,9.40
2019-03-01T11:26:20.443Z,10.10
2019-03-01T11:29:26.153Z,9.87
2019-03-01T11:32:31.906Z,9.13
2019-03-01T11:35:37.735Z,8.30
2019-03-01T11:38:43.549Z,9.93
2019-03-01T11:41:49.350Z,9.73
2019-03-01T11:44:55.062Z,9.13
2019-03-01T11:48:00.986Z,9.30
2019-03-01T11:51:06.691Z,9.60
2019-03-01T11:54:12.416Z,8.87
2019-03-01T11:57:18.284Z,9.47
2019-03-01T12:00:24.469Z,8.93
2019-03-01T12:03:30.212Z,8.83
2019-03-01T12:06:35.932Z,9.37
2019-03-01T12:09:41.668Z,9.13
2019-03-01T12:12:47.702Z,8.97
2019-03-01T12:15:53.424Z,8.87
2019-03-01T12:18:59.204Z,8.90
2019-03-01T12:22:04.950Z,9.27
2019-03-01T12:25:10.996Z,9.10
2019-03-01T12:28:16.749Z,9.50
2019-03-01T12:31:22.475Z,9.57
2019-03-01T12:34:28.290Z,9.10
2019-03-01T12:37:34.009Z,8.67
2019-03-01T12:40:39.712Z,9.00
2019-03-01T12:43:46.435Z,8.37
2019-03-01T12:46:52.138Z,8.80
2019-03-01T12:50:00.052Z,8.30
2019-03-01T12:53:05.535Z,9.77
2019-03-01T12:56:11.280Z,9.10
2019-03-01T12:59:17.145Z,8.40
2019-03-01T13:02:22.943Z,8.53
2019-03-01T13:05:30.152Z,9.60
2019-03-01T13:08:36.187Z,8.63
2019-03-01T13:11:41.905Z,8.80
2019-03-01T13:14:47.743Z,8.83
2019-03-01T13:17:53.579Z,9.63
2019-03-01T13:20:59.417Z,8.73
2019-03-01T13:24:05.302Z,9.10
2019-03-01T13:27:14.101Z,11.27
2019-03-01T13:30:21.513Z,9.73
2019-03-01T13:33:27.438Z,8.83
2019-03-01T13:36:36.200Z,9.97
2019-03-01T13:39:45.049Z,9.37
2019-03-01T13:42:50.760Z,9.70
2019-03-01T13:45:57.708Z,9.77
2019-03-01T13:49:03.447Z,9.07
2019-03-01T13:52:14.770Z,8.23
2019-03-01T13:55:22.224Z,8.13
2019-03-01T13:58:28.165Z,9.20
2019-03-01T14:01:33.991Z,9.07
2019-03-01T14:04:40.250Z,9.27
2019-03-01T14:07:47.410Z,8.37
2019-03-01T14:10:53.217Z,7.97
2019-03-01T14:13:58.955Z,8.30
2019-03-01T14:17:06.387Z,9.00
2019-03-01T14:20:19.108Z,7.80
2019-03-01T14:23:24.876Z,8.10
2019-03-01T14:26:29.433Z,9.87
2019-03-01T14:29:35.206Z,8.07
2019-03-01T14:32:41.068Z,8.37
2019-03-01T14:35:46.788Z,8.43
2019-03-01T14:38:52.622Z,9.03
2019-03-01T14:42:00.541Z,8.50
2019-03-01T14:45:09.680Z,9.37
2019-03-01T14:48:16.538Z,9.60
2019-03-01T14:51:22.280Z,9.97
2019-03-01T14:54:28.039Z,9.00
2019-03-01T14:57:37.052Z,8.57
2019-03-01T15:00:50.978Z,9.43
2019-03-01T15:03:54.947Z,8.10
2019-03-01T15:07:00.646Z,9.50
2019-03-01T15:10:08.148Z,10.53
2019-03-01T15:13:13.913Z,10.90
2019-03-01T15:16:20.920Z,10.53
2019-03-01T15:19:26.661Z,10.57
2019-03-01T15:22:32.394Z,11.83
2019-03-01T15:25:38.131Z,10.83
2019-03-01T15:28:53.914Z,11.83
2019-03-01T15:31:57.613Z,10.93
2019-03-01T15:35:04.377Z,10.70
2019-03-01T15:38:10.895Z,10.87
2019-03-01T15:41:16.802Z,10.30
2019-03-01T15:44:22.571Z,10.73
2019-03-01T15:47:28.284Z,11.73
2019-03-01T15:50:34.069Z,10.70
2019-03-01T15:53:39.797Z,11.10
2019-03-01T15:56:46.577Z,12.03
2019-03-01T15:59:52.317Z,12.20
2019-03-01T16:02:58.159Z,11.77
2019-03-01T16:06:03.928Z,12.53
2019-03-01T16:09:15.571Z,13.07
2019-03-01T16:12:21.484Z,13.80
2019-03-01T16:15:27.252Z,14.43
2019-03-01T16:18:35.444Z,14.30
2019-03-01T16:21:43.068Z,14.40
2019-03-01T16:24:47.919Z,15.70
2019-03-01T16:27:54.349Z,15.73
2019-03-01T16:31:00.865Z,13.07
2019-03-01T16:34:06.805Z,13.40
2019-03-01T16:37:12.646Z,14.13
2019-03-01T16:40:18.374Z,11.50
2019-03-01T16:43:25.453Z,12.57
2019-03-01T16:46:32.181Z,13.83
2019-03-01T16:49:38.003Z,14.57
2019-03-01T16:52:43.894Z,13.23
2019-03-01T16:55:49.651Z,14.20
2019-03-01T16:58:55.412Z,11.33
2019-03-01T17:02:06.324Z,12.07
2019-03-01T17:05:09.636Z,13.23
2019-03-01T17:08:15.407Z,11.27
2019-03-01T17:11:21.150Z,11.87
2019-03-01T17:14:26.993Z,11.20
2019-03-01T17:17:33.046Z,11.43
2019-03-01T17:20:40.324Z,12.30
2019-03-01T17:23:46.089Z,15.07
2019-03-01T17:26:52.099Z,15.50
2019-03-01T17:29:57.859Z,15.27
2019-03-01T17:33:03.577Z,14.47
2019-03-01T17:36:09.346Z,16.40
2019-03-01T17:39:16.709Z,15.00
2019-03-01T17:42:22.890Z,15.20
2019-03-01T17:45:28.773Z,14.17
2019-03-01T17:48:34.514Z,13.57
2019-03-01T17:51:40.273Z,12.70
2019-03-01T17:54:46.036Z,11.67
2019-03-01T17:57:52.853Z,12.27
2019-03-01T18:00:58.807Z,14.10
2019-03-01T18:04:06.025Z,14.77
2019-03-01T18:07:12.089Z,16.77
2019-03-01T18:10:17.942Z,16.70
2019-03-01T18:13:23.753Z,17.80
2019-03-01T18:16:30.644Z,17.70
2019-03-01T18:19:36.475Z,18.50
2019-03-01T18:22:42.391Z,18.43
2019-03-01T18:25:48.112Z,17.83
2019-03-01T18:28:54.292Z,18.57
2019-03-01T18:32:00.070Z,18.57
2019-03-01T18:35:08.091Z,19.77
2019-03-01T18:38:15.013Z,19.97
2019-03-01T18:41:20.794Z,18.90
2019-03-01T18:44:27.039Z,20.20
2019-03-01T18:47:32.867Z,18.37
2019-03-01T18:50:38.854Z,20.03
2019-03-01T18:53:45.590Z,20.03
2019-03-01T18:56:51.482Z,19.87
2019-03-01T18:59:59.914Z,19.87
2019-03-01T19:03:06.667Z,22.20
2019-03-01T19:06:12.899Z,18.90
2019-03-01T19:09:19.927Z,18.63
2019-03-01T19:12:25.724Z,17.33
2019-03-01T19:15:31.750Z,19.20
2019-03-01T19:18:37.560Z,17.00
2019-03-01T19:21:43.321Z,17.17
2019-03-01T19:24:50.036Z,16.67
2019-03-01T19:27:56.618Z,18.53
2019-03-01T19:31:02.464Z,16.80
2019-03-01T19:34:08.183Z,15.80
2019-03-01T19:37:14.570Z,17.63
2019-03-01T19:40:20.512Z,15.57
2019-03-01T19:43:26.316Z,16.07
2019-03-01T19:46:32.064Z,17.00
2019-03-01T19:49:37.799Z,16.63
2019-03-01T19:52:47.071Z,16.37
2019-03-01T19:55:51.149Z,15.83
2019-03-01T19:58:56.870Z,16.87
2019-03-01T20:02:03.622Z,16.47
2019-03-01T20:05:11.318Z,16.27
2019-03-01T20:08:17.159Z,14.97
2019-03-01T20:11:23.390Z,15.97
2019-03-01T20:14:33.632Z,17.60
2019-03-01T20:17:44.130Z,16.90
2019-03-01T20:20:45.280Z,16.17
2019-03-01T20:23:51.026Z,16.57
2019-03-01T20:26:59.885Z,17.47
2019-03-01T20:30:04.719Z,17.87
2019-03-01T20:33:10.730Z,17.10
2019-03-01T20:36:17.697Z,17.40
2019-03-01T20:39:24.037Z,17.27
2019-03-01T20:42:29.865Z,16.53
2019-03-01T20:45:35.637Z,17.43
2019-03-01T20:48:41.355Z,17.13
2019-03-01T20:51:48.074Z,17.80
2019-03-01T20:54:53.888Z,17.37
2019-03-01T20:58:02.867Z,18.70
2019-03-01T21:01:07.245Z,17.17
2019-03-01T21:04:13.071Z,18.30
2019-03-01T21:07:18.844Z,18.20
2019-03-01T21:10:24.804Z,17.27
2019-03-01T21:13:30.528Z,16.63
2019-03-01T21:16:36.299Z,16.33
2019-03-01T21:19:43.823Z,17.40
2019-03-01T21:22:49.576Z,18.43
2019-03-01T21:25:55.302Z,17.07
2019-03-01T21:29:01.138Z,16.97
2019-03-01T21:32:07.999Z,17.17
2019-03-01T21:35:16.706Z,17.27
2019-03-01T21:38:21.488Z,17.37
2019-03-01T21:41:27.249Z,17.90
2019-03-01T21:44:32.980Z,17.43
2019-03-01T21:47:38.733Z,17.93
2019-03-01T21:50:44.576Z,17.77
2019-03-01T21:53:50.303Z,17.57
2019-03-01T21:56:57.065Z,17.33
2019-03-01T22:00:04.100Z,18.23
2019-03-01T22:03:11.477Z,17.43
2019-03-01T22:06:17.218Z,16.77
2019-03-01T22:09:24.264Z,17.10
2019-03-01T22:12:30.369Z,15.90
2019-03-01T22:15:36.292Z,16.63
2019-03-01T22:18:42.143Z,16.57
2019-03-01T22:21:47.848Z,16.43
2019-03-01T22:24:53.580Z,16.03
2019-03-01T22:28:01.216Z,16.93
2019-03-01T22:31:06.758Z,16.13
2019-03-01T22:34:12.582Z,15.73
2019-03-01T22:37:18.301Z,16.53
2019-03-01T22:40:28.010Z,14.87
2019-03-01T22:43:31.421Z,14.27
2019-03-01T22:46:37.146Z,13.73
2019-03-01T22:49:42.954Z,14.47
2019-03-01T22:52:48.658Z,13.17
2019-03-01T22:55:54.368Z,13.27
2019-03-01T22:59:00.310Z,14.60
2019-03-01T23:02:09.315Z,15.20
2019-03-01T23:05:15.263Z,13.97
2019-03-01T23:08:20.978Z,13.67
2019-03-01T23:11:28.655Z,13.90
2019-03-01T23:14:34.126Z,13.90
2019-03-01T23:17:39.978Z,13.77
2019-03-01T23:20:45.703Z,13.13
2019-03-01T23:23:52.331Z,13.10
2019-03-01T23:26:58.063Z,13.13
2019-03-01T23:30:04.201Z,13.17
2019-03-01T23:33:11.204Z,13.17
2019-03-01T23:36:17.018Z,13.40
2019-03-01T23:39:24.584Z,13.13
2019-03-01T23:42:30.311Z,13.67
2019-03-01T23:45:36.043Z,13.57
2019-03-01T23:48:41.762Z,13.73
2019-03-01T23:51:47.533Z,13.67
2019-03-01T23:54:53.240Z,14.17
2019-03-01T23:58:05.682Z,12.93
